Aviation Digital Data Service (ADDS)

Output produced by METARs form (0936 UTC 17 October 2017)
found at http://www.aviationweather.gov/adds/metars/
 
METAR text: KBVI 170047Z 35005KT 10SM CLR 09/01 A3028 RMK LAST
Conditions at: KBVI (BEAVER FALLS ARP, PA, US) observed 0047 UTC 17 October 2017
Temperature: 9.0°C (48°F)
Dewpoint: 1.0°C (34°F) [RH = 57%]
Pressure (altimeter): 30.28 inches Hg (1025.5 mb)
Winds: from the N (350 degrees) at 6 MPH (5 knots; 2.6 m/s)
Visibility: 10 or more miles (16+ km)
Ceiling: at least 12,000 feet AGL
Clouds: sky clear below 12,000 feet AGL
Weather: no significant weather observed at this time

METAR text: KBVI 162347Z 35005KT 10SM CLR 09/01 A3027 RMK RUNWAY 28 IS IN USE
Conditions at: KBVI (BEAVER FALLS ARP, PA, US) observed 2347 UTC 16 October 2017
Temperature: 9.0°C (48°F)
Dewpoint: 1.0°C (34°F) [RH = 57%]
Pressure (altimeter): 30.27 inches Hg (1025.1 mb)
Winds: from the N (350 degrees) at 6 MPH (5 knots; 2.6 m/s)
Visibility: 10 or more miles (16+ km)
Ceiling: at least 12,000 feet AGL
Clouds: sky clear below 12,000 feet AGL
Weather: no significant weather observed at this time

METAR text: KBVI 162247Z 35005KT 10SM CLR 09/01 A3025 RMK RUNWAY 28 IS IN USE
Conditions at: KBVI (BEAVER FALLS ARP, PA, US) observed 2247 UTC 16 October 2017
Temperature: 9.0°C (48°F)
Dewpoint: 1.0°C (34°F) [RH = 57%]
Pressure (altimeter): 30.25 inches Hg (1024.5 mb)
Winds: from the N (350 degrees) at 6 MPH (5 knots; 2.6 m/s)
Visibility: 10 or more miles (16+ km)
Ceiling: at least 12,000 feet AGL
Clouds: sky clear below 12,000 feet AGL
Weather: no significant weather observed at this time

METAR text: KBVI 162147Z 33005KT 10SM SCT055 BKN070 13/01 A3024 RMK RUNWAY 28 IS IN USE
Conditions at: KBVI (BEAVER FALLS ARP, PA, US) observed 2147 UTC 16 October 2017
Temperature: 13.0°C (55°F)
Dewpoint: 1.0°C (34°F) [RH = 44%]
Pressure (altimeter): 30.24 inches Hg (1024.1 mb)
Winds: from the NNW (330 degrees) at 6 MPH (5 knots; 2.6 m/s)
Visibility: 10 or more miles (16+ km)
Ceiling: 7000 feet AGL
Clouds: scattered clouds at 5500 feet AGL
broken clouds at 7000 feet AGL
Weather: no significant weather observed at this time

METAR text: KBVI 162047Z 32007G14KT 10SM BKN055 BKN075 14/00 A3022 RMK RUNWAY 28 IS IN USE
Conditions at: KBVI (BEAVER FALLS ARP, PA, US) observed 2047 UTC 16 October 2017
Temperature: 14.0°C (57°F)
Dewpoint: 0.0°C (32°F) [RH = 38%]
Pressure (altimeter): 30.22 inches Hg (1023.5 mb)
Winds: from the NW (320 degrees) at 8 MPH (7 knots; 3.6 m/s)
gusting to 16 MPH (14 knots; 7.3 m/s)
Visibility: 10 or more miles (16+ km)
Ceiling: 5500 feet AGL
Clouds: broken clouds at 5500 feet AGL
broken clouds at 7500 feet AGL
Weather: no significant weather observed at this time

METAR text: KBVI 161947Z 32007G14KT 10SM SCT060 14/00 A3022 RMK RUNWAY 28 IS IN USE
Conditions at: KBVI (BEAVER FALLS ARP, PA, US) observed 1947 UTC 16 October 2017
Temperature: 14.0°C (57°F)
Dewpoint: 0.0°C (32°F) [RH = 38%]
Pressure (altimeter): 30.22 inches Hg (1023.5 mb)
Winds: from the NW (320 degrees) at 8 MPH (7 knots; 3.6 m/s)
gusting to 16 MPH (14 knots; 7.3 m/s)
Visibility: 10 or more miles (16+ km)
Ceiling: at least 12,000 feet AGL
Clouds: scattered clouds at 6000 feet AGL
Weather: no significant weather observed at this time

METAR text: KBVI 161847Z 34006KT 10SM BKN046 BKN075 13/03 A3022 RMK RUNWAY 28 IS IN USE
Conditions at: KBVI (BEAVER FALLS ARP, PA, US) observed 1847 UTC 16 October 2017
Temperature: 13.0°C (55°F)
Dewpoint: 3.0°C (37°F) [RH = 51%]
Pressure (altimeter): 30.22 inches Hg (1023.5 mb)
Winds: from the NNW (340 degrees) at 7 MPH (6 knots; 3.1 m/s)
Visibility: 10 or more miles (16+ km)
Ceiling: 4600 feet AGL
Clouds: broken clouds at 4600 feet AGL
broken clouds at 7500 feet AGL
Weather: no significant weather observed at this time

METAR text: KBVI 161647Z 28010G16KT 10SM BKN039 OVC046 11/05 A3025
Conditions at: KBVI (BEAVER FALLS ARP, PA, US) observed 1647 UTC 16 October 2017
Temperature: 11.0°C (52°F)
Dewpoint: 5.0°C (41°F) [RH = 66%]
Pressure (altimeter): 30.25 inches Hg (1024.5 mb)
Winds: from the W (280 degrees) at 12 MPH (10 knots; 5.2 m/s)
gusting to 18 MPH (16 knots; 8.3 m/s)
Visibility: 10 or more miles (16+ km)
Ceiling: 3900 feet AGL
Clouds: broken clouds at 3900 feet AGL
overcast cloud deck at 4600 feet AGL
Weather: no significant weather observed at this time

METAR text: KBVI 161547Z 33006KT 10SM SCT047 SCT060 12/05 A3024
Conditions at: KBVI (BEAVER FALLS ARP, PA, US) observed 1547 UTC 16 October 2017
Temperature: 12.0°C (54°F)
Dewpoint: 5.0°C (41°F) [RH = 62%]
Pressure (altimeter): 30.24 inches Hg (1024.1 mb)
Winds: from the NNW (330 degrees) at 7 MPH (6 knots; 3.1 m/s)
Visibility: 10 or more miles (16+ km)
Ceiling: at least 12,000 feet AGL
Clouds: scattered clouds at 4700 feet AGL
scattered clouds at 6000 feet AGL
Weather: no significant weather observed at this time

METAR text: KBVI 161447Z 34005KT 10SM SCT017 SCT025 SCT032 11/07 A3023
Conditions at: KBVI (BEAVER FALLS ARP, PA, US) observed 1447 UTC 16 October 2017
Temperature: 11.0°C (52°F)
Dewpoint: 7.0°C (45°F) [RH = 76%]
Pressure (altimeter): 30.23 inches Hg (1023.8 mb)
Winds: from the NNW (340 degrees) at 6 MPH (5 knots; 2.6 m/s)
Visibility: 10 or more miles (16+ km)
Ceiling: at least 12,000 feet AGL
Clouds: scattered clouds at 1700 feet AGL
scattered clouds at 2500 feet AGL
scattered clouds at 3200 feet AGL
Weather: no significant weather observed at this time

METAR text: KBVI 161347Z 34004KT 10SM SCT008 SCT016 BKN030 08/07 A3022
Conditions at: KBVI (BEAVER FALLS ARP, PA, US) observed 1347 UTC 16 October 2017
Temperature: 8.0°C (46°F)
Dewpoint: 7.0°C (45°F) [RH = 93%]
Pressure (altimeter): 30.22 inches Hg (1023.5 mb)
Winds: from the NNW (340 degrees) at 5 MPH (4 knots; 2.1 m/s)
Visibility: 10 or more miles (16+ km)
Ceiling: 3000 feet AGL
Clouds: scattered clouds at 800 feet AGL
scattered clouds at 1600 feet AGL
broken clouds at 3000 feet AGL
Weather: no significant weather observed at this time

METAR text: KBVI 161247Z 32003KT 10SM SCT008 BKN030 08/07 A3020
Conditions at: KBVI (BEAVER FALLS ARP, PA, US) observed 1247 UTC 16 October 2017
Temperature: 8.0°C (46°F)
Dewpoint: 7.0°C (45°F) [RH = 93%]
Pressure (altimeter): 30.20 inches Hg (1022.8 mb)
Winds: from the NW (320 degrees) at 3 MPH (3 knots; 1.6 m/s)
Visibility: 10 or more miles (16+ km)
Ceiling: 3000 feet AGL
Clouds: scattered clouds at 800 feet AGL
broken clouds at 3000 feet AGL
Weather: no significant weather observed at this time

METAR text: KBVI 161225Z 34005KT 10SM SCT004 BKN028 08/07 A3018
Conditions at: KBVI (BEAVER FALLS ARP, PA, US) observed 1225 UTC 16 October 2017
Temperature: 8.0°C (46°F)
Dewpoint: 7.0°C (45°F) [RH = 93%]
Pressure (altimeter): 30.18 inches Hg (1022.1 mb)
Winds: from the NNW (340 degrees) at 6 MPH (5 knots; 2.6 m/s)
Visibility: 10 or more miles (16+ km)
Ceiling: 2800 feet AGL
Clouds: scattered clouds at 400 feet AGL
broken clouds at 2800 feet AGL
Weather: no significant weather observed at this time

METAR text: KBVI 161147Z 34005KT 5SM RA OVC006 08/07 A3017
Conditions at: KBVI (BEAVER FALLS ARP, PA, US) observed 1147 UTC 16 October 2017
Temperature: 8.0°C (46°F)
Dewpoint: 7.0°C (45°F) [RH = 93%]
Pressure (altimeter): 30.17 inches Hg (1021.8 mb)
Winds: from the NNW (340 degrees) at 6 MPH (5 knots; 2.6 m/s)
Visibility: 5 miles (8 km)
Ceiling: 600 feet AGL
Clouds: overcast cloud deck at 600 feet AGL
Weather: RA  (rain)